createdAt,value
2019-05-11T00:00:16.649Z,13.80
2019-05-11T00:02:47.497Z,13.18
2019-05-11T00:05:18.450Z,13.50
2019-05-11T00:07:48.689Z,13.75
2019-05-11T00:10:18.973Z,13.30
2019-05-11T00:12:49.235Z,12.85
2019-05-11T00:15:19.804Z,12.73
2019-05-11T00:17:50.081Z,13.20
2019-05-11T00:20:21.903Z,12.95
2019-05-11T00:22:52.192Z,13.48
2019-05-11T00:25:22.545Z,13.03
2019-05-11T00:27:52.794Z,12.88
2019-05-11T00:30:23.173Z,14.68
2019-05-11T00:32:53.461Z,12.30
2019-05-11T00:35:23.793Z,12.00
2019-05-11T00:37:54.822Z,11.70
2019-05-11T00:40:25.119Z,11.68
2019-05-11T00:42:55.419Z,11.60
2019-05-11T00:45:25.684Z,11.85
2019-05-11T00:47:56.551Z,11.70
2019-05-11T00:50:38.604Z,11.90
2019-05-11T00:52:58.942Z,10.93
2019-05-11T00:55:29.299Z,11.28
2019-05-11T00:57:59.562Z,9.98
2019-05-11T01:00:29.888Z,10.88
2019-05-11T01:03:00.160Z,10.80
2019-05-11T01:05:30.340Z,10.38
2019-05-11T01:08:00.610Z,10.40
2019-05-11T01:10:41.542Z,10.93
2019-05-11T01:13:04.286Z,11.25
2019-05-11T01:15:38.767Z,10.55
2019-05-11T01:18:09.247Z,11.00
2019-05-11T01:20:39.614Z,10.78
2019-05-11T01:23:09.833Z,10.78
2019-05-11T01:25:40.293Z,11.30
2019-05-11T01:28:10.615Z,10.95
2019-05-11T01:30:40.944Z,10.60
2019-05-11T01:33:11.418Z,11.10
2019-05-11T01:35:41.966Z,10.72
2019-05-11T01:38:12.292Z,11.28
2019-05-11T01:40:57.610Z,10.90
2019-05-11T01:43:14.817Z,10.53
2019-05-11T01:45:45.018Z,10.40
2019-05-11T01:48:16.198Z,10.25
2019-05-11T01:50:46.398Z,11.15
2019-05-11T01:53:16.746Z,10.82
2019-05-11T01:55:47.018Z,11.10
2019-05-11T01:58:17.326Z,11.20
2019-05-11T02:00:47.596Z,12.18
2019-05-11T02:03:18.946Z,10.93
2019-05-11T02:05:51.754Z,10.58
2019-05-11T02:08:22.235Z,11.38
2019-05-11T02:10:52.684Z,11.45
2019-05-11T02:13:23.589Z,10.40
2019-05-11T02:15:53.943Z,11.05
2019-05-11T02:18:24.198Z,10.35
2019-05-11T02:20:54.395Z,11.08
2019-05-11T02:23:24.903Z,11.05
2019-05-11T02:25:55.177Z,10.95
2019-05-11T02:28:25.479Z,10.63
2019-05-11T02:30:55.767Z,11.03
2019-05-11T02:33:26.129Z,10.98
2019-05-11T02:35:56.615Z,12.10
2019-05-11T02:38:26.910Z,11.78
2019-05-11T02:40:57.431Z,10.85
2019-05-11T02:43:27.724Z,10.98
2019-05-11T02:45:58.217Z,11.12
2019-05-11T02:48:29.070Z,11.55
2019-05-11T02:51:00.073Z,12.05
2019-05-11T02:53:32.336Z,11.35
2019-05-11T02:56:04.429Z,10.90
2019-05-11T02:58:34.799Z,12.43
2019-05-11T03:01:05.262Z,12.13
2019-05-11T03:03:35.552Z,12.10
2019-05-11T03:06:05.741Z,11.20
2019-05-11T03:08:36.053Z,12.00
2019-05-11T03:11:06.444Z,11.75
2019-05-11T03:13:36.760Z,12.47
2019-05-11T03:16:07.215Z,12.05
2019-05-11T03:18:37.539Z,12.28
2019-05-11T03:21:07.730Z,12.28
2019-05-11T03:23:38.055Z,12.63
2019-05-11T03:26:09.294Z,12.63
2019-05-11T03:28:39.869Z,12.80
2019-05-11T03:31:10.149Z,12.70
2019-05-11T03:33:40.413Z,12.82
2019-05-11T03:36:10.816Z,13.30
2019-05-11T03:38:41.391Z,12.40
2019-05-11T03:41:11.682Z,13.18
2019-05-11T03:43:41.991Z,13.40
2019-05-11T03:46:12.260Z,13.62
2019-05-11T03:48:42.552Z,13.35
2019-05-11T03:51:13.126Z,12.63
2019-05-11T03:53:43.478Z,12.93
2019-05-11T03:56:13.793Z,12.98
2019-05-11T03:58:44.011Z,13.58
2019-05-11T04:01:14.403Z,12.82
2019-05-11T04:03:44.993Z,13.13
2019-05-11T04:06:15.268Z,13.30
2019-05-11T04:08:45.570Z,14.33
2019-05-11T04:11:15.811Z,13.70
2019-05-11T04:13:46.163Z,13.65
2019-05-11T04:16:16.545Z,13.15
2019-05-11T04:18:46.875Z,13.10
2019-05-11T04:21:17.232Z,13.13
2019-05-11T04:23:47.491Z,13.53
2019-05-11T04:26:17.764Z,13.08
2019-05-11T04:28:48.169Z,13.68
2019-05-11T04:31:18.870Z,13.22
2019-05-11T04:33:49.149Z,13.13
2019-05-11T04:36:20.611Z,13.22
2019-05-11T04:38:50.826Z,13.98
2019-05-11T04:41:21.181Z,13.48
2019-05-11T04:43:51.404Z,13.90
2019-05-11T04:46:21.672Z,13.25
2019-05-11T04:48:51.985Z,14.23
2019-05-11T04:51:22.263Z,15.88
2019-05-11T04:53:52.498Z,13.78
2019-05-11T04:56:22.690Z,13.70
2019-05-11T04:58:53.044Z,13.93
2019-05-11T05:01:23.635Z,13.85
2019-05-11T05:03:57.794Z,13.70
2019-05-11T05:06:25.864Z,13.40
2019-05-11T05:08:58.078Z,12.63
2019-05-11T05:11:30.720Z,12.07
2019-05-11T05:14:02.165Z,12.82
2019-05-11T05:16:34.189Z,13.15
2019-05-11T05:19:04.490Z,13.85
2019-05-11T05:21:34.797Z,12.82
2019-05-11T05:24:05.409Z,13.50
2019-05-11T05:26:35.667Z,14.00
2019-05-11T05:29:06.049Z,13.22
2019-05-11T05:31:36.677Z,12.98
2019-05-11T05:34:06.922Z,11.97
2019-05-11T05:36:37.715Z,13.18
2019-05-11T05:39:09.551Z,12.60
2019-05-11T05:41:40.227Z,12.70
2019-05-11T05:44:10.522Z,12.93
2019-05-11T05:46:40.837Z,13.13
2019-05-11T05:49:11.255Z,13.20
2019-05-11T05:51:41.557Z,13.25
2019-05-11T05:54:11.900Z,12.95
2019-05-11T05:56:42.199Z,13.65
2019-05-11T05:59:12.556Z,13.75
2019-05-11T06:01:42.903Z,14.20
2019-05-11T06:04:13.285Z,14.33
2019-05-11T06:06:43.602Z,13.32
2019-05-11T06:09:13.941Z,13.45
2019-05-11T06:11:47.540Z,12.85
2019-05-11T06:14:17.938Z,12.45
2019-05-11T06:16:49.261Z,12.85
2019-05-11T06:19:19.739Z,13.83
2019-05-11T06:21:50.141Z,12.70
2019-05-11T06:24:20.527Z,12.40
2019-05-11T06:26:50.794Z,12.98
2019-05-11T06:29:21.801Z,13.28
2019-05-11T06:31:52.309Z,12.58
2019-05-11T06:34:22.675Z,12.90
2019-05-11T06:36:53.415Z,13.00
2019-05-11T06:39:23.693Z,12.65
2019-05-11T06:41:53.917Z,12.50
2019-05-11T06:44:24.633Z,12.80
2019-05-11T06:46:54.875Z,12.50
2019-05-11T06:49:25.394Z,12.20
2019-05-11T06:51:55.655Z,11.38
2019-05-11T06:54:26.000Z,11.10
2019-05-11T06:56:56.263Z,13.05
2019-05-11T06:59:27.188Z,13.28
2019-05-11T07:01:57.415Z,14.15
2019-05-11T07:04:28.228Z,11.97
2019-05-11T07:06:58.622Z,12.45
2019-05-11T07:09:29.001Z,12.03
2019-05-11T07:11:59.328Z,12.20
2019-05-11T07:14:29.753Z,12.03
2019-05-11T07:17:00.043Z,12.58
2019-05-11T07:19:30.377Z,14.70
2019-05-11T07:22:00.719Z,11.85
2019-05-11T07:24:30.906Z,11.80
2019-05-11T07:27:01.674Z,11.20
2019-05-11T07:29:32.019Z,10.85
2019-05-11T07:32:10.001Z,11.63
2019-05-11T07:34:34.432Z,11.53
2019-05-11T07:37:04.808Z,11.48
2019-05-11T07:39:35.463Z,11.48
2019-05-11T07:42:07.650Z,12.55
2019-05-11T07:44:40.977Z,13.75
2019-05-11T07:47:09.536Z,12.88
2019-05-11T07:49:39.966Z,11.85
2019-05-11T07:52:11.399Z,12.60
2019-05-11T07:54:41.700Z,13.00
2019-05-11T07:57:12.009Z,12.58
2019-05-11T07:59:44.154Z,12.43
2019-05-11T08:02:14.424Z,11.18
2019-05-11T08:04:45.287Z,11.30
2019-05-11T08:07:17.928Z,9.95
2019-05-11T08:09:48.321Z,9.45
2019-05-11T08:12:19.302Z,8.43
2019-05-11T08:15:00.871Z,8.48
2019-05-11T08:17:21.557Z,7.55
2019-05-11T08:19:51.816Z,8.05
2019-05-11T08:22:22.970Z,7.87
2019-05-11T08:24:53.489Z,8.65
2019-05-11T08:27:24.224Z,8.35
2019-05-11T08:29:54.493Z,8.53
2019-05-11T08:32:24.772Z,8.40
2019-05-11T08:34:55.455Z,8.63
2019-05-11T08:37:25.613Z,7.92
2019-05-11T08:39:58.335Z,7.50
2019-05-11T08:42:28.939Z,7.10
2019-05-11T08:45:15.341Z,7.05
2019-05-11T08:47:31.935Z,7.00
2019-05-11T08:50:02.338Z,7.00
2019-05-11T08:52:32.655Z,10.25
2019-05-11T08:55:04.737Z,7.25
2019-05-11T08:57:35.594Z,6.83
2019-05-11T09:00:08.531Z,6.12
2019-05-11T09:02:39.804Z,6.50
2019-05-11T09:05:10.172Z,5.87
2019-05-11T09:07:40.422Z,7.12
2019-05-11T09:10:10.880Z,6.95
2019-05-11T09:12:41.708Z,7.53
2019-05-11T09:15:12.381Z,8.25
2019-05-11T09:17:42.639Z,9.23
2019-05-11T09:20:12.915Z,8.75
2019-05-11T09:22:43.197Z,9.45
2019-05-11T09:25:13.448Z,9.05
2019-05-11T09:27:43.765Z,8.60
2019-05-11T09:30:15.084Z,7.70
2019-05-11T09:32:47.609Z,7.08
2019-05-11T09:35:18.918Z,6.15
2019-05-11T09:37:49.183Z,5.47
2019-05-11T09:40:19.812Z,5.85
2019-05-11T09:42:50.190Z,6.12
2019-05-11T09:45:20.382Z,5.45
2019-05-11T09:47:50.705Z,6.35
2019-05-11T09:50:21.051Z,5.40
2019-05-11T09:52:51.407Z,5.17
2019-05-11T09:55:21.950Z,5.22
2019-05-11T09:57:52.237Z,4.80
2019-05-11T10:00:23.312Z,4.42
2019-05-11T10:02:53.629Z,4.42
2019-05-11T10:05:23.900Z,4.92
2019-05-11T10:07:54.589Z,5.50
2019-05-11T10:10:24.835Z,4.70
2019-05-11T10:12:55.653Z,4.78
2019-05-11T10:15:27.991Z,4.95
2019-05-11T10:17:59.082Z,5.10
2019-05-11T10:20:29.483Z,5.05
2019-05-11T10:22:59.696Z,6.65
2019-05-11T10:25:29.964Z,5.65
2019-05-11T10:28:00.256Z,5.17
2019-05-11T10:30:31.140Z,5.08
2019-05-11T10:33:01.398Z,4.70
2019-05-11T10:35:31.682Z,5.70
2019-05-11T10:38:02.416Z,4.85
2019-05-11T10:40:32.635Z,5.30
2019-05-11T10:43:02.942Z,5.80
2019-05-11T10:45:33.531Z,5.70
2019-05-11T10:48:03.843Z,5.33
2019-05-11T10:50:34.195Z,5.40
2019-05-11T10:53:04.413Z,4.70
2019-05-11T10:55:34.607Z,4.97
2019-05-11T10:58:04.916Z,5.12
2019-05-11T11:00:35.171Z,5.00
2019-05-11T11:03:05.476Z,4.78
2019-05-11T11:05:35.652Z,4.72
2019-05-11T11:08:08.102Z,5.72
2019-05-11T11:10:38.265Z,5.08
2019-05-11T11:13:08.514Z,5.28
2019-05-11T11:15:38.806Z,4.72
2019-05-11T11:18:09.091Z,4.30
2019-05-11T11:20:45.862Z,4.92
2019-05-11T11:23:17.707Z,4.25
2019-05-11T11:25:48.311Z,4.30
2019-05-11T11:28:18.562Z,4.12
2019-05-11T11:30:48.812Z,3.40
2019-05-11T11:33:19.456Z,3.47
2019-05-11T11:35:49.639Z,3.40
2019-05-11T11:38:19.957Z,3.08
2019-05-11T11:40:50.264Z,3.50
2019-05-11T11:43:20.478Z,2.60
2019-05-11T11:45:50.708Z,2.70
2019-05-11T11:48:21.004Z,2.37
2019-05-11T11:50:51.261Z,3.22
2019-05-11T11:53:21.480Z,3.00
2019-05-11T11:55:51.683Z,2.90
2019-05-11T11:58:23.923Z,2.95
2019-05-11T12:00:53.857Z,3.00
2019-05-11T12:03:24.197Z,2.90
2019-05-11T12:05:54.717Z,2.90
2019-05-11T12:08:24.879Z,2.72
2019-05-11T12:10:55.065Z,2.85
2019-05-11T12:13:27.409Z,2.95
2019-05-11T12:15:58.547Z,3.30
2019-05-11T12:18:28.951Z,3.00
2019-05-11T12:20:59.275Z,3.00
2019-05-11T12:23:29.535Z,2.80
2019-05-11T12:26:00.241Z,2.95
2019-05-11T12:28:30.424Z,2.22
2019-05-11T12:31:00.646Z,2.42
2019-05-11T12:33:31.397Z,2.15
2019-05-11T12:36:01.670Z,2.40
2019-05-11T12:38:31.930Z,2.20
2019-05-11T12:41:02.224Z,2.70
2019-05-11T12:43:33.272Z,3.25
2019-05-11T12:46:03.560Z,2.98
2019-05-11T12:48:33.746Z,2.85
2019-05-11T12:51:04.440Z,2.45
2019-05-11T12:53:34.623Z,2.70
2019-05-11T12:56:04.880Z,2.37
2019-05-11T12:58:35.154Z,3.17
2019-05-11T13:01:05.739Z,2.90
2019-05-11T13:03:38.393Z,2.30
2019-05-11T13:06:08.145Z,2.40
2019-05-11T13:08:38.967Z,2.30
2019-05-11T13:11:09.338Z,2.10
2019-05-11T13:13:39.539Z,2.47
2019-05-11T13:16:09.822Z,2.47
2019-05-11T13:18:40.312Z,2.37
2019-05-11T13:21:10.592Z,2.33
2019-05-11T13:23:40.895Z,2.40
2019-05-11T13:26:13.377Z,1.85
2019-05-11T13:28:43.014Z,1.90
2019-05-11T13:31:13.307Z,1.90
2019-05-11T13:33:43.605Z,2.00
2019-05-11T13:36:13.876Z,2.42
2019-05-11T13:38:44.162Z,2.62
2019-05-11T13:41:14.947Z,2.10
2019-05-11T13:43:45.183Z,2.10
2019-05-11T13:46:17.718Z,2.50
2019-05-11T13:48:47.605Z,3.10
2019-05-11T13:51:18.643Z,2.45
2019-05-11T13:53:49.909Z,2.77
2019-05-11T13:56:20.740Z,3.02
2019-05-11T13:58:50.979Z,3.15
2019-05-11T14:01:21.164Z,2.67
2019-05-11T14:03:51.736Z,2.98
2019-05-11T14:06:23.976Z,2.87
2019-05-11T14:08:54.284Z,2.55
2019-05-11T14:11:24.567Z,2.40
2019-05-11T14:13:55.048Z,3.05
2019-05-11T14:16:27.560Z,2.90
2019-05-11T14:18:58.146Z,2.62
2019-05-11T14:21:28.348Z,2.58
2019-05-11T14:23:58.916Z,2.70
2019-05-11T14:26:29.282Z,2.60
2019-05-11T14:28:59.601Z,2.83
2019-05-11T14:31:30.311Z,2.60
2019-05-11T14:34:00.693Z,2.60
2019-05-11T14:36:31.241Z,2.83
2019-05-11T14:39:01.613Z,2.62
2019-05-11T14:41:32.800Z,3.10
2019-05-11T14:44:03.692Z,3.60
2019-05-11T14:46:33.895Z,3.40
2019-05-11T14:49:04.261Z,3.58
2019-05-11T14:51:34.505Z,4.00
2019-05-11T14:54:04.715Z,3.92
2019-05-11T14:56:35.162Z,4.05
2019-05-11T14:59:05.451Z,3.87
2019-05-11T15:01:37.965Z,3.55
2019-05-11T15:04:08.963Z,3.92
2019-05-11T15:06:40.096Z,3.80
2019-05-11T15:09:10.462Z,4.10
2019-05-11T15:11:40.700Z,4.22
2019-05-11T15:14:11.000Z,3.95
2019-05-11T15:16:41.632Z,3.98
2019-05-11T15:19:11.925Z,3.75
2019-05-11T15:21:42.742Z,4.03
2019-05-11T15:24:12.876Z,3.45
2019-05-11T15:26:43.141Z,3.83
2019-05-11T15:29:13.405Z,3.98
2019-05-11T15:31:44.171Z,4.15
2019-05-11T15:34:14.453Z,5.50
2019-05-11T15:36:44.803Z,6.70
2019-05-11T15:39:15.146Z,12.13
2019-05-11T15:41:47.828Z,8.10
2019-05-11T15:44:18.328Z,7.58
2019-05-11T15:46:48.943Z,6.22
2019-05-11T15:49:19.129Z,5.75
2019-05-11T15:51:49.764Z,5.10
2019-05-11T15:54:20.035Z,6.58
2019-05-11T15:56:50.736Z,6.28
2019-05-11T15:59:20.918Z,6.58
2019-05-11T16:01:54.367Z,6.35
2019-05-11T16:04:23.280Z,24.00
2019-05-11T16:06:53.596Z,32.63
2019-05-11T16:09:23.901Z,38.75
2019-05-11T16:11:54.223Z,21.93
2019-05-11T16:14:24.661Z,20.72
2019-05-11T16:16:55.051Z,17.85
2019-05-11T16:19:25.301Z,15.72
2019-05-11T16:21:55.527Z,10.88
2019-05-11T16:24:25.724Z,9.85
2019-05-11T16:26:58.080Z,11.15
2019-05-11T16:29:28.201Z,6.58
2019-05-11T16:31:58.544Z,5.58
2019-05-11T16:34:29.030Z,5.53
2019-05-11T16:36:59.296Z,5.55
2019-05-11T16:39:29.575Z,4.90
2019-05-11T16:41:59.907Z,5.58
2019-05-11T16:44:30.282Z,6.05
2019-05-11T16:47:00.638Z,6.45
2019-05-11T16:49:32.418Z,7.97
2019-05-11T16:52:03.089Z,6.22
2019-05-11T16:54:33.404Z,6.47
2019-05-11T16:57:03.748Z,6.55
2019-05-11T16:59:33.998Z,6.72
2019-05-11T17:02:04.864Z,6.97
2019-05-11T17:04:36.188Z,7.42
2019-05-11T17:07:06.498Z,7.33
2019-05-11T17:09:37.804Z,8.10
2019-05-11T17:12:08.699Z,7.90
2019-05-11T17:14:40.576Z,8.08
2019-05-11T17:17:10.958Z,8.10
2019-05-11T17:19:46.030Z,8.08
2019-05-11T17:22:13.489Z,7.87
2019-05-11T17:24:43.813Z,8.08
2019-05-11T17:27:14.510Z,8.98
2019-05-11T17:29:44.843Z,8.95
2019-05-11T17:32:17.610Z,9.08
2019-05-11T17:34:47.847Z,9.65
2019-05-11T17:37:18.440Z,9.65
2019-05-11T17:39:49.396Z,10.18
2019-05-11T17:42:19.784Z,9.35
2019-05-11T17:44:50.040Z,9.48
2019-05-11T17:47:23.499Z,10.18
2019-05-11T17:49:59.592Z,10.70
2019-05-11T17:52:24.893Z,10.82
2019-05-11T17:54:55.241Z,10.60
2019-05-11T17:57:27.594Z,10.93
2019-05-11T17:59:57.968Z,11.28
2019-05-11T18:02:28.968Z,11.97
2019-05-11T18:04:59.826Z,11.68
2019-05-11T18:07:30.983Z,11.70
2019-05-11T18:10:01.515Z,12.68
2019-05-11T18:12:32.845Z,13.08
2019-05-11T18:15:03.139Z,14.38
2019-05-11T18:17:33.466Z,14.20
2019-05-11T18:20:14.712Z,15.45
2019-05-11T18:22:39.092Z,16.17
2019-05-11T18:27:40.129Z,15.15
2019-05-11T18:30:10.704Z,16.27
2019-05-11T18:32:41.094Z,16.40
2019-05-11T18:35:11.558Z,16.70
2019-05-11T18:37:55.352Z,16.93
2019-05-11T18:42:55.313Z,18.27
2019-05-11T18:45:25.618Z,17.67
2019-05-11T18:47:55.908Z,18.05
2019-05-11T18:50:30.927Z,17.55
2019-05-11T18:52:58.163Z,18.62
2019-05-11T18:55:28.625Z,18.37
2019-05-11T18:58:00.011Z,18.62
2019-05-11T19:00:30.291Z,18.23
2019-05-11T19:03:00.531Z,17.87
2019-05-11T19:05:31.121Z,19.02
2019-05-11T19:08:01.463Z,18.12
2019-05-11T19:10:32.827Z,18.73
2019-05-11T19:13:03.248Z,19.12
2019-05-11T19:15:33.637Z,19.10
2019-05-11T19:18:03.942Z,20.02
2019-05-11T19:20:45.322Z,20.75
2019-05-11T19:23:08.349Z,20.45
2019-05-11T19:25:38.401Z,19.60
2019-05-11T19:28:09.300Z,21.33
2019-05-11T19:30:39.536Z,21.00
2019-05-11T19:33:11.296Z,21.27
2019-05-11T19:35:41.708Z,21.42
2019-05-11T19:38:12.010Z,21.55
2019-05-11T19:40:42.274Z,21.30
2019-05-11T19:43:13.088Z,21.93
2019-05-11T19:45:43.361Z,22.35
2019-05-11T19:48:13.984Z,22.22
2019-05-11T19:50:44.236Z,22.87
2019-05-11T19:53:14.547Z,23.25
2019-05-11T19:55:45.288Z,22.90
2019-05-11T19:58:15.618Z,23.05
2019-05-11T20:00:48.657Z,23.67
2019-05-11T20:03:18.277Z,24.00
2019-05-11T20:05:48.708Z,23.60
2019-05-11T20:08:20.730Z,22.95
2019-05-11T20:10:51.027Z,23.45
2019-05-11T20:13:21.339Z,22.22
2019-05-11T20:15:53.044Z,23.62
2019-05-11T20:18:23.271Z,23.25
2019-05-11T20:20:53.532Z,23.35
2019-05-11T20:23:23.866Z,22.85
2019-05-11T20:25:58.215Z,21.82
2019-05-11T20:28:28.632Z,21.75
2019-05-11T20:30:58.972Z,21.85
2019-05-11T20:33:30.296Z,21.80
2019-05-11T20:36:00.577Z,21.93
2019-05-11T20:38:31.208Z,23.05
2019-05-11T20:41:01.628Z,23.35
2019-05-11T20:43:32.084Z,22.62
2019-05-11T20:46:02.476Z,22.27
2019-05-11T20:48:32.816Z,23.30
2019-05-11T20:51:03.080Z,22.27
2019-05-11T20:53:33.430Z,21.62
2019-05-11T20:56:03.836Z,22.05
2019-05-11T20:58:35.757Z,21.30
2019-05-11T21:01:06.378Z,21.73
2019-05-11T21:03:38.108Z,21.85
2019-05-11T21:06:08.411Z,23.12
2019-05-11T21:08:39.309Z,24.07
2019-05-11T21:11:09.577Z,24.92
2019-05-11T21:13:39.953Z,23.60
2019-05-11T21:16:11.223Z,24.43
2019-05-11T21:18:41.892Z,25.45
2019-05-11T21:21:12.102Z,24.05
2019-05-11T21:23:42.535Z,23.83
2019-05-11T21:26:15.687Z,23.73
2019-05-11T21:28:44.656Z,23.18
2019-05-11T21:31:15.458Z,22.93
2019-05-11T21:33:45.770Z,23.75
2019-05-11T21:36:18.031Z,23.15
2019-05-11T21:38:48.973Z,24.20
2019-05-11T21:41:19.270Z,24.15
2019-05-11T21:43:49.496Z,24.30
2019-05-11T21:46:19.761Z,24.12
2019-05-11T21:48:50.150Z,22.85
2019-05-11T21:51:20.866Z,23.18
2019-05-11T21:53:51.161Z,22.22
2019-05-11T21:56:21.456Z,22.93
2019-05-11T21:58:53.609Z,22.30
2019-05-11T22:01:23.711Z,21.77
2019-05-11T22:03:54.032Z,22.37
2019-05-11T22:06:24.313Z,21.93
2019-05-11T22:08:55.221Z,21.45
2019-05-11T22:11:25.446Z,22.80
2019-05-11T22:13:57.766Z,23.00
2019-05-11T22:16:30.091Z,24.10
2019-05-11T22:19:00.350Z,24.77
2019-05-11T22:21:30.600Z,24.25
2019-05-11T22:24:01.280Z,23.73
2019-05-11T22:26:31.585Z,23.15
2019-05-11T22:29:01.846Z,23.42
2019-05-11T22:31:32.726Z,24.27
2019-05-11T22:34:03.114Z,23.40
2019-05-11T22:36:33.937Z,22.65
2019-05-11T22:39:08.330Z,23.00
2019-05-11T22:41:39.684Z,22.80
2019-05-11T22:44:11.222Z,23.40
2019-05-11T22:46:41.437Z,22.60
2019-05-11T22:49:11.772Z,23.45
2019-05-11T22:51:42.193Z,22.50
2019-05-11T22:54:18.414Z,22.87
2019-05-11T22:56:48.194Z,23.65
2019-05-11T22:59:18.591Z,22.62
2019-05-11T23:01:49.140Z,22.35
2019-05-11T23:04:19.918Z,23.05
2019-05-11T23:06:50.300Z,24.95
2019-05-11T23:09:21.788Z,26.30
2019-05-11T23:11:51.989Z,27.55
2019-05-11T23:14:22.291Z,29.10
2019-05-11T23:16:52.593Z,30.37
2019-05-11T23:19:22.874Z,32.13
2019-05-11T23:21:53.177Z,32.65
2019-05-11T23:24:23.622Z,31.82
2019-05-11T23:26:53.856Z,32.17
2019-05-11T23:29:24.037Z,31.33
2019-05-11T23:31:54.338Z,31.20
2019-05-11T23:34:24.847Z,31.42
2019-05-11T23:36:55.168Z,30.40
2019-05-11T23:39:25.532Z,29.55
2019-05-11T23:41:55.864Z,29.67
2019-05-11T23:44:26.133Z,30.50
2019-05-11T23:46:56.761Z,29.40
2019-05-11T23:49:27.027Z,29.35
2019-05-11T23:51:57.264Z,29.42
2019-05-11T23:54:28.140Z,27.55
2019-05-11T23:56:58.514Z,28.17
2019-05-11T23:59:28.771Z,28.27
